ADDS METAR Data INFO
IDs: Format: Raw Decoded Include TAF

Data at: 0928 UTC 17 Oct 2017

K9D7 170915Z AUTO 18004KT 10SM CLR 00/00 A2989 RMK AO2
K9D7 170855Z AUTO 18004KT 10SM CLR 01/01 A2990 RMK AO2
K9D7 170835Z AUTO 21006KT 10SM CLR 01/01 A2990 RMK AO2
K9D7 170815Z AUTO 18004KT 10SM CLR 00/00 A2990 RMK AO2
K9D7 170755Z AUTO 21004KT 10SM CLR 01/01 A2990 RMK AO2
K9D7 170735Z AUTO 24004KT 10SM CLR 02/02 A2991 RMK AO2
K9D7 170715Z AUTO 24003KT 10SM CLR 01/01 A2992 RMK AO2
K9D7 170655Z AUTO 24005KT 10SM CLR 01/01 A2992 RMK AO2
K9D7 170635Z AUTO 26005KT 10SM CLR 01/01 A2992 RMK AO2
K9D7 170615Z AUTO 24005KT 10SM CLR 02/02 A2992 RMK AO2
K9D7 170555Z AUTO 24006KT 10SM CLR 02/02 A2992 RMK AO2
K9D7 170535Z AUTO 23006KT 10SM CLR 02/02 A2992 RMK AO2
K9D7 170515Z AUTO 24006KT 10SM CLR 02/02 A2992 RMK AO2
K9D7 170455Z AUTO 24006KT 10SM CLR 02/02 A2992 RMK AO2
K9D7 170435Z AUTO 24007KT 10SM CLR 02/02 A2992 RMK AO2
K9D7 170415Z AUTO 26005KT 10SM CLR 02/01 A2992 RMK AO2
K9D7 170355Z AUTO 24006KT 10SM CLR 02/00 A2992 RMK AO2
K9D7 170335Z AUTO 25005KT 10SM CLR 03/00 A2993 RMK AO2
K9D7 170315Z AUTO 25006KT 10SM CLR 03/00 A2993 RMK AO2
K9D7 170255Z AUTO 25005KT 10SM CLR 04/00 A2992 RMK AO2
K9D7 170235Z AUTO 25004KT 10SM CLR 04/M00 A2992 RMK AO2
K9D7 170215Z AUTO 26004KT 10SM CLR 05/00 A2992 RMK AO2
K9D7 170155Z AUTO 25005KT 10SM CLR 05/00 A2991 RMK AO2
K9D7 170135Z AUTO 24005KT 10SM CLR 05/00 A2991 RMK AO2
K9D7 170115Z AUTO 23007KT 10SM CLR 07/01 A2990 RMK AO2
K9D7 170055Z AUTO 24006KT 10SM CLR 08/01 A2991 RMK AO2
K9D7 170035Z AUTO 26006KT 7SM CLR 09/01 A2990 RMK AO2
K9D7 170015Z AUTO 28006KT 10SM CLR 10/01 A2991 RMK AO2
K9D7 162355Z AUTO 27005KT 10SM CLR 12/01 A2990 RMK AO2
K9D7 162335Z AUTO 29005KT 10SM CLR 13/02 A2990 RMK AO2
K9D7 162315Z AUTO 29006KT 10SM CLR 15/02 A2989 RMK AO2
K9D7 162255Z AUTO 29009KT 10SM CLR 17/02 A2988 RMK AO2
K9D7 162235Z AUTO 29012KT 10SM CLR 18/02 A2988 RMK AO2
K9D7 162215Z AUTO 29010KT 10SM CLR 18/02 A2988 RMK AO2
K9D7 162155Z AUTO 28010KT 10SM CLR 17/01 A2987 RMK AO2
K9D7 162135Z AUTO 29012KT 10SM CLR 18/01 A2987 RMK AO2
K9D7 162115Z AUTO 29015KT 10SM CLR 19/01 A2987 RMK AO2
K9D7 162055Z AUTO 28013KT 10SM CLR 19/01 A2986 RMK AO2
K9D7 162035Z AUTO 28018KT 10SM CLR 19/01 A2986 RMK AO2
K9D7 162015Z AUTO 28018KT 10SM CLR 20/01 A2985 RMK AO2
K9D7 161955Z AUTO 28018KT 10SM CLR 19/01 A2985 RMK AO2
K9D7 161935Z AUTO 28016KT 10SM CLR 19/02 A2985 RMK AO2
K9D7 161915Z AUTO 26017KT 10SM CLR 19/02 A2986 RMK AO2
K9D7 161855Z AUTO 27015G21KT 10SM CLR 18/02 A2986 RMK AO2
K9D7 161835Z AUTO 27012G19KT 10SM CLR 17/02 A2987 RMK AO2
K9D7 161815Z AUTO 28014G21KT 10SM CLR 17/02 A2987 RMK AO2
K9D7 161755Z AUTO 26014G19KT 10SM CLR 17/02 A2987 RMK AO2
K9D7 161735Z AUTO 26017KT 10SM CLR 16/02 A2987 RMK AO2
K9D7 161715Z AUTO 27015G21KT 10SM CLR 15/01 A2987 RMK AO2
K9D7 161655Z AUTO 27015G25KT 10SM CLR 15/01 A2987 RMK AO2
K9D7 161635Z AUTO 26015G21KT 10SM CLR 14/01 A2987 RMK AO2
K9D7 161615Z AUTO 25017G22KT 10SM CLR 13/01 A2988 RMK AO2
K9D7 161555Z AUTO 24016G21KT 10SM CLR 12/01 A2987 RMK AO2
K9D7 161535Z AUTO 25016G24KT 10SM CLR 12/00 A2989 RMK AO2
K9D7 161515Z AUTO 24016KT 10SM CLR 10/00 A2989 RMK AO2
K9D7 161455Z AUTO 23013KT 10SM CLR 09/00 A2990 RMK AO2
K9D7 161435Z AUTO 24012KT 10SM CLR 08/M00 A2991 RMK AO2
K9D7 161415Z AUTO 23010KT 10SM CLR 07/M00 A2991 RMK AO2
K9D7 161355Z AUTO 22013KT 10SM CLR 06/01 A2990 RMK AO2
K9D7 161335Z AUTO 20009KT 10SM CLR 04/01 A2990 RMK AO2
K9D7 161315Z AUTO 19007KT 10SM CLR 02/01 A2992 RMK AO2
K9D7 161255Z AUTO 18008KT 10SM CLR 02/01 A2993 RMK AO2
K9D7 161235Z AUTO 16008KT 10SM CLR 01/01 A2994 RMK AO2
K9D7 161215Z AUTO 16007KT 10SM CLR 01/01 A2995 RMK AO2
K9D7 161155Z AUTO 17008KT 10SM CLR 02/02 A2997 RMK AO2
K9D7 161135Z AUTO 17006KT 10SM CLR M00/M00 A2998 RMK AO2
K9D7 161115Z AUTO 17007KT 10SM CLR M00/M00 A2999 RMK AO2
K9D7 161055Z AUTO 17007KT 10SM CLR M01/M01 A3000 RMK AO2
K9D7 161035Z AUTO 15006KT 10SM CLR 00/M00 A3001 RMK AO2
K9D7 161015Z AUTO 18005KT 10SM CLR 02/00 A3002 RMK AO2
K9D7 160955Z AUTO 21008KT 10SM CLR 03/01 A3003 RMK AO2
K9D7 160935Z AUTO 22009KT 10SM CLR 02/01 A3004 RMK AO2
K9D7 160915Z AUTO 22007KT 10SM CLR 01/01 A3005 RMK AO2
K9D7 160855Z AUTO 21007KT 10SM CLR 01/01 A3005 RMK AO2
K9D7 160835Z AUTO 20007KT 10SM CLR 00/01 A3006 RMK AO2
K9D7 160815Z AUTO 21007KT 10SM CLR 00/00 A3007 RMK AO2
K9D7 160755Z AUTO 21005KT 10SM CLR M00/M00 A3008 RMK AO2
K9D7 160735Z AUTO 22004KT 10SM CLR M01/M01 A3008 RMK AO2
K9D7 160715Z AUTO 22005KT 10SM SCT019 SCT024 M01/M01 A3009 RMK AO2
K9D7 160655Z AUTO 22006KT 10SM OVC021 M01/M01 A3009 RMK AO2
K9D7 160635Z AUTO 22004KT 10SM OVC023 M01/M01 A3010 RMK AO2
K9D7 160615Z AUTO 23005KT 10SM BKN024 M01/M01 A3010 RMK AO2
K9D7 160555Z AUTO 22004KT 10SM CLR M01/M01 A3011 RMK AO2
K9D7 160535Z AUTO 21005KT 10SM CLR M01/M01 A3011 RMK AO2
K9D7 160515Z AUTO 21004KT 10SM CLR M01/M01 A3012 RMK AO2
K9D7 160455Z AUTO 23006KT 10SM CLR M00/M00 A3013 RMK AO2
K9D7 160435Z AUTO 23007KT 10SM CLR M00/M00 A3013 RMK AO2
K9D7 160415Z AUTO 23006KT 10SM CLR 00/00 A3013 RMK AO2
K9D7 160355Z AUTO 23007KT 10SM CLR 00/00 A3013 RMK AO2
K9D7 160335Z AUTO 22006KT 10SM CLR M00/M00 A3014 RMK AO2
K9D7 160315Z AUTO 23006KT 10SM CLR M01/M01 A3014 RMK AO2
K9D7 160255Z AUTO 23006KT 10SM CLR M00/M01 A3014 RMK AO2
K9D7 160235Z AUTO 24005KT 10SM CLR M00/M01 A3015 RMK AO2
K9D7 160215Z AUTO 23006KT 10SM FEW041 M00/M02 A3014 RMK AO2
K9D7 160155Z AUTO 23006KT 10SM CLR 00/M03 A3015 RMK AO2
K9D7 160135Z AUTO 25005KT 10SM CLR 01/M03 A3014 RMK AO2
K9D7 160115Z AUTO 24007KT 10SM CLR 02/M03 A3014 RMK AO2
K9D7 160055Z AUTO 26006KT 10SM CLR 02/M03 A3014 RMK AO2
K9D7 160035Z AUTO 28006KT 10SM CLR 03/M03 A3014 RMK AO2
K9D7 160015Z AUTO 29007KT 10SM CLR 05/M02 A3014 RMK AO2
K9D7 152355Z AUTO 30006KT 10SM CLR 07/M02 A3013 RMK AO2
K9D7 152335Z AUTO 31009KT 10SM FEW050 09/M02 A3013 RMK AO2
K9D7 152315Z AUTO 31008G13KT 10SM FEW050 10/M01 A3013 RMK AO2
K9D7 152255Z AUTO 31014KT 10SM FEW050 11/M01 A3012 RMK AO2
K9D7 152235Z AUTO 32012G18KT 10SM BKN050 12/M01 A3012 RMK AO2
K9D7 152215Z AUTO 29013KT 10SM SCT055 11/M01 A3011 RMK AO2
K9D7 152155Z AUTO 30014G20KT 10SM CLR 12/M01 A3010 RMK AO2
K9D7 152135Z AUTO 31012G19KT 10SM FEW050 FEW055 11/M01 A3010 RMK AO2